sensor_id;sensor_type;location;lat;lon;timestamp;pressure;altitude;pressure_sealevel;temperature;humidity
68859;BME280;55864;49.238;8.092;2023-03-14T00:00:31;97674.22;;;10.18;88.89
68859;BME280;55864;49.238;8.092;2023-03-14T00:02:32;97673.88;;;10.21;88.21
68859;BME280;55864;49.238;8.092;2023-03-14T00:04:32;97680.47;;;10.32;87.48
68859;BME280;55864;49.238;8.092;2023-03-14T00:06:34;97673.94;;;10.28;87.71
68859;BME280;55864;49.238;8.092;2023-03-14T00:08:35;97669.44;;;10.22;87.78
68859;BME280;55864;49.238;8.092;2023-03-14T00:10:35;97661.41;;;10.23;87.65
68859;BME280;55864;49.238;8.092;2023-03-14T00:12:36;97661.75;;;10.20;87.75
68859;BME280;55864;49.238;8.092;2023-03-14T00:14:37;97670.25;;;10.22;87.76
68859;BME280;55864;49.238;8.092;2023-03-14T00:16:37;97673.16;;;10.27;87.46
68859;BME280;55864;49.238;8.092;2023-03-14T00:18:38;97673.16;;;10.27;87.29
68859;BME280;55864;49.238;8.092;2023-03-14T00:20:39;97672.78;;;10.30;87.99
68859;BME280;55864;49.238;8.092;2023-03-14T00:22:41;97679.63;;;10.31;88.24
68859;BME280;55864;49.238;8.092;2023-03-14T00:24:42;97674.97;;;10.27;87.96
68859;BME280;55864;49.238;8.092;2023-03-14T00:26:43;97668.78;;;10.34;88.19
68859;BME280;55864;49.238;8.092;2023-03-14T00:28:44;97662.91;;;10.32;88.04
68859;BME280;55864;49.238;8.092;2023-03-14T00:30:44;97654.59;;;10.29;88.27
68859;BME280;55864;49.238;8.092;2023-03-14T00:32:45;97642.09;;;10.31;87.88
68859;BME280;55864;49.238;8.092;2023-03-14T00:34:45;97654.66;;;10.35;87.61
68859;BME280;55864;49.238;8.092;2023-03-14T00:36:46;97661.34;;;10.38;87.61
68859;BME280;55864;49.238;8.092;2023-03-14T00:38:50;97659.56;;;10.38;87.79
68859;BME280;55864;49.238;8.092;2023-03-14T00:40:51;97673.94;;;10.28;88.01
68859;BME280;55864;49.238;8.092;2023-03-14T00:42:51;97663.28;;;10.29;87.80
68859;BME280;55864;49.238;8.092;2023-03-14T00:44:53;97669.53;;;10.28;87.82
68859;BME280;55864;49.238;8.092;2023-03-14T00:46:54;97671.50;;;10.26;88.18
68859;BME280;55864;49.238;8.092;2023-03-14T00:48:54;97681.75;;;10.21;88.48
68859;BME280;55864;49.238;8.092;2023-03-14T00:50:55;97677.69;;;10.19;88.67
68859;BME280;55864;49.238;8.092;2023-03-14T00:52:55;97672.88;;;10.22;88.67
68859;BME280;55864;49.238;8.092;2023-03-14T00:54:57;97680.31;;;10.19;88.78
68859;BME280;55864;49.238;8.092;2023-03-14T00:56:58;97684.72;;;10.18;88.37
68859;BME280;55864;49.238;8.092;2023-03-14T00:58:59;97681.94;;;10.20;87.85
68859;BME280;55864;49.238;8.092;2023-03-14T01:01:05;97684.19;;;10.23;87.98
68859;BME280;55864;49.238;8.092;2023-03-14T01:03:07;97677.94;;;10.24;88.23
68859;BME280;55864;49.238;8.092;2023-03-14T01:05:08;97669.72;;;10.27;88.27
68859;BME280;55864;49.238;8.092;2023-03-14T01:07:08;97671.06;;;10.23;89.46
68859;BME280;55864;49.238;8.092;2023-03-14T01:09:09;97678.75;;;10.24;89.51
68859;BME280;55864;49.238;8.092;2023-03-14T01:11:12;97677.31;;;10.22;90.04
68859;BME280;55864;49.238;8.092;2023-03-14T01:13:13;97688.38;;;10.17;89.47
68859;BME280;55864;49.238;8.092;2023-03-14T01:15:13;97678.69;;;10.18;89.79
68859;BME280;55864;49.238;8.092;2023-03-14T01:17:14;97682.47;;;10.15;89.64
68859;BME280;55864;49.238;8.092;2023-03-14T01:19:14;97683.94;;;10.18;89.21
68859;BME280;55864;49.238;8.092;2023-03-14T01:21:18;97680.31;;;10.19;89.61
68859;BME280;55864;49.238;8.092;2023-03-14T01:23:19;97674.53;;;10.23;89.74
68859;BME280;55864;49.238;8.092;2023-03-14T01:25:20;97668.44;;;10.23;90.64
68859;BME280;55864;49.238;8.092;2023-03-14T01:27:22;97658.13;;;10.21;90.55
68859;BME280;55864;49.238;8.092;2023-03-14T01:29:23;97668.25;;;10.24;90.51
68859;BME280;55864;49.238;8.092;2023-03-14T01:31:24;97668.97;;;10.33;89.49
68859;BME280;55864;49.238;8.092;2023-03-14T01:33:25;97670.78;;;10.32;89.43
68859;BME280;55864;49.238;8.092;2023-03-14T01:35:25;97656.22;;;10.30;89.68
68859;BME280;55864;49.238;8.092;2023-03-14T01:37:27;97656.59;;;10.27;89.44
68859;BME280;55864;49.238;8.092;2023-03-14T01:39:28;97654.94;;;10.26;90.13
68859;BME280;55864;49.238;8.092;2023-03-14T01:41:28;97646.81;;;10.21;90.14
68859;BME280;55864;49.238;8.092;2023-03-14T01:43:33;97650.72;;;10.25;88.61
68859;BME280;55864;49.238;8.092;2023-03-14T01:46:11;97634.16;;;10.24;89.59
68859;BME280;55864;49.238;8.092;2023-03-14T01:48:15;97652.16;;;10.27;89.76
68859;BME280;55864;49.238;8.092;2023-03-14T01:50:16;97626.72;;;10.28;89.82
68859;BME280;55864;49.238;8.092;2023-03-14T01:52:18;97621.84;;;10.25;90.20
68859;BME280;55864;49.238;8.092;2023-03-14T01:54:25;97614.91;;;10.17;90.43
68859;BME280;55864;49.238;8.092;2023-03-14T01:56:27;97620.50;;;10.14;90.50
68859;BME280;55864;49.238;8.092;2023-03-14T01:58:30;97621.69;;;10.12;89.72
68859;BME280;55864;49.238;8.092;2023-03-14T02:00:32;97610.38;;;10.11;89.29
68859;BME280;55864;49.238;8.092;2023-03-14T02:02:33;97607.22;;;10.16;89.28
68859;BME280;55864;49.238;8.092;2023-03-14T02:04:35;97598.28;;;10.10;88.19
68859;BME280;55864;49.238;8.092;2023-03-14T02:06:44;97606.22;;;10.17;86.96
68859;BME280;55864;49.238;8.092;2023-03-14T02:08:47;97596.34;;;10.19;86.25
68859;BME280;55864;49.238;8.092;2023-03-14T02:10:50;97587.66;;;10.18;86.18
68859;BME280;55864;49.238;8.092;2023-03-14T02:12:59;97589.84;;;10.15;86.19
68859;BME280;55864;49.238;8.092;2023-03-14T02:15:09;97583.16;;;10.12;86.17
68859;BME280;55864;49.238;8.092;2023-03-14T02:17:31;97570.66;;;10.14;85.74
68859;BME280;55864;49.238;8.092;2023-03-14T02:19:46;97566.84;;;10.17;84.65
68859;BME280;55864;49.238;8.092;2023-03-14T02:22:13;97563.41;;;10.16;85.71
68859;BME280;55864;49.238;8.092;2023-03-14T02:24:25;97561.59;;;10.17;85.19
68859;BME280;55864;49.238;8.092;2023-03-14T02:26:38;97539.56;;;10.11;85.04
68859;BME280;55864;49.238;8.092;2023-03-14T02:28:42;97543.44;;;10.15;84.57
68859;BME280;55864;49.238;8.092;2023-03-14T02:30:43;97549.84;;;10.13;84.92
68859;BME280;55864;49.238;8.092;2023-03-14T02:32:46;97552.28;;;10.14;85.23
68859;BME280;55864;49.238;8.092;2023-03-14T02:34:52;97550.25;;;10.10;84.98
68859;BME280;55864;49.238;8.092;2023-03-14T02:36:54;97534.31;;;10.11;84.90
68859;BME280;55864;49.238;8.092;2023-03-14T02:39:00;97540.00;;;10.15;84.03
68859;BME280;55864;49.238;8.092;2023-03-14T02:41:04;97539.00;;;10.16;84.49
68859;BME280;55864;49.238;8.092;2023-03-14T02:43:09;97533.38;;;10.19;83.10
68859;BME280;55864;49.238;8.092;2023-03-14T02:45:38;97538.81;;;10.17;83.05
68859;BME280;55864;49.238;8.092;2023-03-14T02:47:43;97531.13;;;10.16;83.26
68859;BME280;55864;49.238;8.092;2023-03-14T02:49:44;97533.75;;;10.16;83.91
68859;BME280;55864;49.238;8.092;2023-03-14T02:51:45;97524.06;;;10.16;82.80
68859;BME280;55864;49.238;8.092;2023-03-14T02:53:46;97514.56;;;10.15;82.55
68859;BME280;55864;49.238;8.092;2023-03-14T02:55:48;97513.84;;;10.21;82.74
68859;BME280;55864;49.238;8.092;2023-03-14T02:57:50;97513.84;;;10.21;81.25
68859;BME280;55864;49.238;8.092;2023-03-14T02:59:51;97517.63;;;10.19;81.49
68859;BME280;55864;49.238;8.092;2023-03-14T03:01:55;97519.63;;;10.17;80.99
68859;BME280;55864;49.238;8.092;2023-03-14T03:03:56;97525.50;;;10.19;80.95
68859;BME280;55864;49.238;8.092;2023-03-14T03:05:56;97514.97;;;10.12;81.52
68859;BME280;55864;49.238;8.092;2023-03-14T03:07:57;97507.53;;;10.16;80.83
68859;BME280;55864;49.238;8.092;2023-03-14T03:09:58;97499.03;;;10.14;79.85
68859;BME280;55864;49.238;8.092;2023-03-14T03:11:58;97485.91;;;10.14;80.87
68859;BME280;55864;49.238;8.092;2023-03-14T03:14:01;97470.38;;;10.12;80.53
68859;BME280;55864;49.238;8.092;2023-03-14T03:16:03;97471.78;;;10.15;79.31
68859;BME280;55864;49.238;8.092;2023-03-14T03:18:06;97452.00;;;10.12;79.06
68859;BME280;55864;49.238;8.092;2023-03-14T03:20:07;97450.56;;;10.10;78.65
68859;BME280;55864;49.238;8.092;2023-03-14T03:22:08;97444.91;;;10.13;77.71
68859;BME280;55864;49.238;8.092;2023-03-14T03:24:09;97443.31;;;10.12;78.23
68859;BME280;55864;49.238;8.092;2023-03-14T03:26:09;97439.25;;;10.09;76.90
68859;BME280;55864;49.238;8.092;2023-03-14T03:28:10;97431.59;;;10.14;76.72
68859;BME280;55864;49.238;8.092;2023-03-14T03:30:13;97422.94;;;10.14;77.32
68859;BME280;55864;49.238;8.092;2023-03-14T03:32:16;97423.94;;;10.13;76.65
68859;BME280;55864;49.238;8.092;2023-03-14T03:34:17;97424.31;;;10.10;76.93
68859;BME280;55864;49.238;8.092;2023-03-14T03:36:21;97417.06;;;10.12;76.50
68859;BME280;55864;49.238;8.092;2023-03-14T03:38:21;97408.59;;;10.10;77.19
68859;BME280;55864;49.238;8.092;2023-03-14T03:40:25;97409.72;;;10.07;75.93
68859;BME280;55864;49.238;8.092;2023-03-14T03:42:27;97403.88;;;10.05;76.77
68859;BME280;55864;49.238;8.092;2023-03-14T03:44:28;97392.38;;;10.06;76.02
68859;BME280;55864;49.238;8.092;2023-03-14T03:46:28;97389.56;;;10.08;76.26
68859;BME280;55864;49.238;8.092;2023-03-14T03:48:29;97399.91;;;10.09;75.68
68859;BME280;55864;49.238;8.092;2023-03-14T03:50:31;97401.88;;;10.07;75.86
68859;BME280;55864;49.238;8.092;2023-03-14T03:52:31;97397.00;;;10.04;75.83
68859;BME280;55864;49.238;8.092;2023-03-14T03:54:32;97404.25;;;10.02;75.50
68859;BME280;55864;49.238;8.092;2023-03-14T03:56:33;97410.47;;;10.01;75.41
68859;BME280;55864;49.238;8.092;2023-03-14T03:58:34;97401.00;;;10.00;75.42
68859;BME280;55864;49.238;8.092;2023-03-14T04:00:36;97404.44;;;10.01;75.58
68859;BME280;55864;49.238;8.092;2023-03-14T04:02:37;97404.63;;;9.99;75.52
68859;BME280;55864;49.238;8.092;2023-03-14T04:04:37;97401.00;;;10.00;74.61
68859;BME280;55864;49.238;8.092;2023-03-14T04:06:40;97411.50;;;10.00;75.79
68859;BME280;55864;49.238;8.092;2023-03-14T04:08:41;97397.94;;;9.97;75.28
68859;BME280;55864;49.238;8.092;2023-03-14T04:10:43;97404.16;;;10.10;76.39
68859;BME280;55864;49.238;8.092;2023-03-14T04:12:47;97402.31;;;10.11;75.51
68859;BME280;55864;49.238;8.092;2023-03-14T04:14:52;97391.56;;;10.06;76.76
68859;BME280;55864;49.238;8.092;2023-03-14T04:16:55;97398.81;;;10.04;76.16
68859;BME280;55864;49.238;8.092;2023-03-14T04:18:56;97391.50;;;9.99;76.43
68859;BME280;55864;49.238;8.092;2023-03-14T04:20:57;97401.75;;;9.94;76.30
68859;BME280;55864;49.238;8.092;2023-03-14T04:23:07;97399.44;;;9.85;76.74
68859;BME280;55864;49.238;8.092;2023-03-14T04:25:08;97386.53;;;9.83;77.67
68859;BME280;55864;49.238;8.092;2023-03-14T04:27:13;97383.28;;;9.81;77.74
68859;BME280;55864;49.238;8.092;2023-03-14T04:29:14;97380.22;;;9.78;78.81
68859;BME280;55864;49.238;8.092;2023-03-14T04:31:20;97371.75;;;9.76;78.94
68859;BME280;55864;49.238;8.092;2023-03-14T04:33:21;97372.06;;;9.66;79.19
68859;BME280;55864;49.238;8.092;2023-03-14T04:35:26;97357.34;;;9.65;79.91
68859;BME280;55864;49.238;8.092;2023-03-14T04:37:31;97362.59;;;9.65;79.69
68859;BME280;55864;49.238;8.092;2023-03-14T04:39:33;97372.28;;;9.71;78.71
68859;BME280;55864;49.238;8.092;2023-03-14T04:41:54;97350.88;;;9.68;79.47
68859;BME280;55864;49.238;8.092;2023-03-14T04:43:56;97351.09;;;9.66;79.78
68859;BME280;55864;49.238;8.092;2023-03-14T04:45:57;97351.00;;;9.60;80.08
68859;BME280;55864;49.238;8.092;2023-03-14T04:47:58;97377.22;;;9.60;80.04
68859;BME280;55864;49.238;8.092;2023-03-14T04:49:59;97353.16;;;9.49;80.92
68859;BME280;55864;49.238;8.092;2023-03-14T04:52:00;97365.88;;;9.52;80.61
68859;BME280;55864;49.238;8.092;2023-03-14T04:54:02;97357.13;;;9.45;81.22
68859;BME280;55864;49.238;8.092;2023-03-14T04:56:06;97358.94;;;9.45;81.31
68859;BME280;55864;49.238;8.092;2023-03-14T04:58:11;97370.44;;;9.44;81.82
68859;BME280;55864;49.238;8.092;2023-03-14T05:00:12;97364.91;;;9.39;82.44
68859;BME280;55864;49.238;8.092;2023-03-14T05:02:45;97349.78;;;9.34;82.15
68859;BME280;55864;49.238;8.092;2023-03-14T05:04:54;97346.88;;;9.29;82.71
68859;BME280;55864;49.238;8.092;2023-03-14T05:07:13;97340.66;;;9.30;82.40
68859;BME280;55864;49.238;8.092;2023-03-14T05:09:43;97342.09;;;9.33;82.96
68859;BME280;55864;49.238;8.092;2023-03-14T05:12:21;97348.56;;;9.37;81.54
68859;BME280;55864;49.238;8.092;2023-03-14T05:14:29;97324.00;;;9.38;81.14
68859;BME280;55864;49.238;8.092;2023-03-14T05:16:29;97331.13;;;9.44;80.22
68859;BME280;55864;49.238;8.092;2023-03-14T05:18:52;97330.13;;;9.45;78.83
68859;BME280;55864;49.238;8.092;2023-03-14T05:21:16;97337.78;;;9.46;78.97
68859;BME280;55864;49.238;8.092;2023-03-14T05:23:49;97339.84;;;9.51;79.57
68859;BME280;55864;49.238;8.092;2023-03-14T05:26:06;97337.44;;;9.49;79.27
68859;BME280;55864;49.238;8.092;2023-03-14T05:28:18;97325.69;;;9.45;79.38
68859;BME280;55864;49.238;8.092;2023-03-14T05:30:29;97320.50;;;9.52;78.42
68859;BME280;55864;49.238;8.092;2023-03-14T05:33:02;97320.34;;;9.54;77.25
68859;BME280;55864;49.238;8.092;2023-03-14T05:35:38;97323.75;;;9.54;77.48
68859;BME280;55864;49.238;8.092;2023-03-14T05:38:02;97327.00;;;9.56;77.33
68859;BME280;55864;49.238;8.092;2023-03-14T05:40:13;97321.75;;;9.56;76.67
68859;BME280;55864;49.238;8.092;2023-03-14T05:42:25;97326.25;;;9.62;75.74
68859;BME280;55864;49.238;8.092;2023-03-14T05:44:40;97325.19;;;9.57;76.94
68859;BME280;55864;49.238;8.092;2023-03-14T05:46:59;97329.81;;;9.55;77.87
68859;BME280;55864;49.238;8.092;2023-03-14T05:49:15;97335.28;;;9.60;76.20
68859;BME280;55864;49.238;8.092;2023-03-14T05:51:34;97327.09;;;9.69;75.72
68859;BME280;55864;49.238;8.092;2023-03-14T05:54:04;97323.72;;;9.75;74.75
68859;BME280;55864;49.238;8.092;2023-03-14T05:56:13;97325.53;;;9.75;75.07
68859;BME280;55864;49.238;8.092;2023-03-14T05:58:34;97316.13;;;9.80;74.54
68859;BME280;55864;49.238;8.092;2023-03-14T06:00:56;97308.25;;;9.80;73.84
68859;BME280;55864;49.238;8.092;2023-03-14T06:03:11;97316.72;;;9.82;74.29
68859;BME280;55864;49.238;8.092;2023-03-14T06:05:16;97324.41;;;9.84;73.70
68859;BME280;55864;49.238;8.092;2023-03-14T06:07:17;97315.53;;;9.85;74.28
68859;BME280;55864;49.238;8.092;2023-03-14T06:09:18;97316.97;;;9.87;74.28
68859;BME280;55864;49.238;8.092;2023-03-14T06:11:19;97331.66;;;9.82;74.45
68859;BME280;55864;49.238;8.092;2023-03-14T06:13:20;97318.38;;;9.90;73.32
68859;BME280;55864;49.238;8.092;2023-03-14T06:15:21;97326.84;;;9.85;74.00
68859;BME280;55864;49.238;8.092;2023-03-14T06:17:26;97326.03;;;9.85;74.96
68859;BME280;55864;49.238;8.092;2023-03-14T06:19:34;97322.34;;;9.79;75.04
68859;BME280;55864;49.238;8.092;2023-03-14T06:21:35;97322.34;;;9.79;75.28
68859;BME280;55864;49.238;8.092;2023-03-14T06:23:36;97321.41;;;9.87;75.88
68859;BME280;55864;49.238;8.092;2023-03-14T06:25:37;97321.78;;;9.84;75.49
68859;BME280;55864;49.238;8.092;2023-03-14T06:27:38;97317.72;;;9.81;75.87
68859;BME280;55864;49.238;8.092;2023-03-14T06:29:38;97328.44;;;9.86;76.15
68859;BME280;55864;49.238;8.092;2023-03-14T06:31:39;97318.34;;;9.83;75.62
68859;BME280;55864;49.238;8.092;2023-03-14T06:33:43;97318.56;;;9.82;76.31
68859;BME280;55864;49.238;8.092;2023-03-14T06:35:44;97335.34;;;9.87;76.54
68859;BME280;55864;49.238;8.092;2023-03-14T06:37:44;97336.59;;;9.91;75.67
68859;BME280;55864;49.238;8.092;2023-03-14T06:39:45;97321.22;;;9.88;76.28
68859;BME280;55864;49.238;8.092;2023-03-14T06:41:55;97338.94;;;9.86;76.73
68859;BME280;55864;49.238;8.092;2023-03-14T06:43:56;97340.59;;;9.87;76.75
68859;BME280;55864;49.238;8.092;2023-03-14T06:45:56;97338.59;;;9.89;76.08
68859;BME280;55864;49.238;8.092;2023-03-14T06:47:57;97344.44;;;9.91;75.88
68859;BME280;55864;49.238;8.092;2023-03-14T06:50:07;97348.66;;;9.86;75.30
68859;BME280;55864;49.238;8.092;2023-03-14T06:52:08;97355.09;;;9.90;76.01
68859;BME280;55864;49.238;8.092;2023-03-14T06:54:09;97346.69;;;9.94;75.38
68859;BME280;55864;49.238;8.092;2023-03-14T06:56:10;97356.00;;;9.97;75.49
68859;BME280;55864;49.238;8.092;2023-03-14T06:58:11;97352.75;;;9.95;76.28
68859;BME280;55864;49.238;8.092;2023-03-14T07:00:17;97353.31;;;9.90;76.41
68859;BME280;55864;49.238;8.092;2023-03-14T07:02:18;97347.63;;;9.87;76.21
68859;BME280;55864;49.238;8.092;2023-03-14T07:04:19;97360.50;;;9.82;77.07
68859;BME280;55864;49.238;8.092;2023-03-14T07:06:23;97353.44;;;9.82;76.71
68859;BME280;55864;49.238;8.092;2023-03-14T07:08:25;97355.06;;;9.83;76.49
68859;BME280;55864;49.238;8.092;2023-03-14T07:10:25;97356.66;;;9.84;77.93
68859;BME280;55864;49.238;8.092;2023-03-14T07:12:26;97363.91;;;9.82;77.52
68859;BME280;55864;49.238;8.092;2023-03-14T07:14:26;97369.97;;;9.83;77.83
68859;BME280;55864;49.238;8.092;2023-03-14T07:16:27;97375.22;;;9.83;77.68
68859;BME280;55864;49.238;8.092;2023-03-14T07:18:28;97373.53;;;9.75;78.19
68859;BME280;55864;49.238;8.092;2023-03-14T07:20:29;97369.56;;;9.79;78.35
68859;BME280;55864;49.238;8.092;2023-03-14T07:22:31;97379.59;;;9.76;78.66
68859;BME280;55864;49.238;8.092;2023-03-14T07:24:32;97376.75;;;9.71;79.17
68859;BME280;55864;49.238;8.092;2023-03-14T07:26:34;97376.28;;;9.88;78.43
68859;BME280;55864;49.238;8.092;2023-03-14T07:28:35;97374.47;;;9.89;78.39
68859;BME280;55864;49.238;8.092;2023-03-14T07:30:40;97391.50;;;9.99;79.19
68859;BME280;55864;49.238;8.092;2023-03-14T07:32:49;97389.66;;;9.93;78.67
68859;BME280;55864;49.238;8.092;2023-03-14T07:34:50;97382.56;;;9.94;77.88
68859;BME280;55864;49.238;8.092;2023-03-14T07:36:50;97389.69;;;10.00;78.40
68859;BME280;55864;49.238;8.092;2023-03-14T07:38:52;97381.00;;;9.99;79.14
68859;BME280;55864;49.238;8.092;2023-03-14T07:41:11;97381.81;;;10.00;78.55
68859;BME280;55864;49.238;8.092;2023-03-14T07:43:20;97386.88;;;10.01;78.07
68859;BME280;55864;49.238;8.092;2023-03-14T07:45:22;97382.25;;;10.03;78.05
68859;BME280;55864;49.238;8.092;2023-03-14T07:47:23;97382.09;;;10.05;77.16
68859;BME280;55864;49.238;8.092;2023-03-14T07:49:23;97381.28;;;10.04;77.34
68859;BME280;55864;49.238;8.092;2023-03-14T07:51:24;97392.66;;;10.11;77.23
68859;BME280;55864;49.238;8.092;2023-03-14T07:53:25;97380.97;;;10.14;76.92
68859;BME280;55864;49.238;8.092;2023-03-14T07:55:27;97386.03;;;10.15;76.44
68859;BME280;55864;49.238;8.092;2023-03-14T07:57:27;97377.34;;;10.15;76.94
68859;BME280;55864;49.238;8.092;2023-03-14T07:59:28;97385.78;;;10.10;77.15
68859;BME280;55864;49.238;8.092;2023-03-14T08:01:28;97395.28;;;10.11;77.16
68859;BME280;55864;49.238;8.092;2023-03-14T08:03:29;97390.22;;;10.10;76.68
68859;BME280;55864;49.238;8.092;2023-03-14T08:05:29;97393.28;;;10.13;76.71
68859;BME280;55864;49.238;8.092;2023-03-14T08:07:30;97392.84;;;10.10;77.26
68859;BME280;55864;49.238;8.092;2023-03-14T08:09:30;97389.63;;;10.14;77.39
68859;BME280;55864;49.238;8.092;2023-03-14T08:11:32;97391.94;;;10.24;76.73
68859;BME280;55864;49.238;8.092;2023-03-14T08:13:33;97388.53;;;10.23;76.44
68859;BME280;55864;49.238;8.092;2023-03-14T08:15:33;97398.59;;;10.20;76.41
68859;BME280;55864;49.238;8.092;2023-03-14T08:17:34;97396.31;;;10.17;77.00
68859;BME280;55864;49.238;8.092;2023-03-14T08:19:34;97406.00;;;10.16;78.31
68859;BME280;55864;49.238;8.092;2023-03-14T08:21:35;97399.13;;;10.15;78.00
68859;BME280;55864;49.238;8.092;2023-03-14T08:23:36;97405.44;;;10.21;78.52
68859;BME280;55864;49.238;8.092;2023-03-14T08:25:37;97403.00;;;10.19;78.64
68859;BME280;55864;49.238;8.092;2023-03-14T08:27:40;97396.13;;;10.18;78.31
68859;BME280;55864;49.238;8.092;2023-03-14T08:29:40;97405.00;;;10.17;79.06
68859;BME280;55864;49.238;8.092;2023-03-14T08:31:41;97399.91;;;10.09;80.51
68859;BME280;55864;49.238;8.092;2023-03-14T08:33:41;97400.31;;;10.13;80.81
68859;BME280;55864;49.238;8.092;2023-03-14T08:35:42;97404.94;;;10.11;81.48
68859;BME280;55864;49.238;8.092;2023-03-14T08:37:43;97416.63;;;10.08;81.41
68859;BME280;55864;49.238;8.092;2023-03-14T08:39:44;97407.75;;;10.09;80.87
68859;BME280;55864;49.238;8.092;2023-03-14T08:41:44;97414.06;;;10.15;81.37
68859;BME280;55864;49.238;8.092;2023-03-14T08:43:46;97419.91;;;10.10;82.03
68859;BME280;55864;49.238;8.092;2023-03-14T08:45:47;97421.78;;;10.02;83.47
68859;BME280;55864;49.238;8.092;2023-03-14T08:47:47;97410.13;;;10.04;84.19
68859;BME280;55864;49.238;8.092;2023-03-14T08:49:48;97410.94;;;10.05;84.22
68859;BME280;55864;49.238;8.092;2023-03-14T08:51:48;97409.94;;;10.06;84.13
68859;BME280;55864;49.238;8.092;2023-03-14T08:53:49;97418.25;;;10.09;84.49
68859;BME280;55864;49.238;8.092;2023-03-14T08:55:52;97413.38;;;10.06;84.47
68859;BME280;55864;49.238;8.092;2023-03-14T08:57:53;97410.13;;;10.04;84.60
68859;BME280;55864;49.238;8.092;2023-03-14T08:59:55;97416.88;;;10.13;83.95
68859;BME280;55864;49.238;8.092;2023-03-14T09:01:56;97411.72;;;10.05;85.44
68859;BME280;55864;49.238;8.092;2023-03-14T09:03:56;97418.25;;;10.09;85.57
68859;BME280;55864;49.238;8.092;2023-03-14T09:06:02;97411.44;;;10.15;85.44
68859;BME280;55864;49.238;8.092;2023-03-14T09:08:03;97420.13;;;10.15;85.58
68859;BME280;55864;49.238;8.092;2023-03-14T09:10:04;97411.22;;;10.10;84.57
68859;BME280;55864;49.238;8.092;2023-03-14T09:12:05;97420.13;;;10.15;84.87
68859;BME280;55864;49.238;8.092;2023-03-14T09:14:06;97408.38;;;10.11;84.77
68859;BME280;55864;49.238;8.092;2023-03-14T09:16:08;97415.63;;;10.09;83.42
68859;BME280;55864;49.238;8.092;2023-03-14T09:18:09;97421.50;;;10.11;84.62
68859;BME280;55864;49.238;8.092;2023-03-14T09:20:10;97419.50;;;10.13;84.67
68859;BME280;55864;49.238;8.092;2023-03-14T09:22:11;97411.63;;;10.13;83.72
68859;BME280;55864;49.238;8.092;2023-03-14T09:24:12;97423.25;;;10.04;85.09
68859;BME280;55864;49.238;8.092;2023-03-14T09:26:12;97416.00;;;10.06;84.31
68859;BME280;55864;49.238;8.092;2023-03-14T09:28:13;97423.25;;;10.04;86.15
68859;BME280;55864;49.238;8.092;2023-03-14T09:30:13;97422.22;;;10.05;86.94
68859;BME280;55864;49.238;8.092;2023-03-14T09:32:15;97427.84;;;10.02;86.63
68859;BME280;55864;49.238;8.092;2023-03-14T09:34:16;97434.09;;;10.01;86.28
68859;BME280;55864;49.238;8.092;2023-03-14T09:36:16;97436.44;;;10.11;85.67
68859;BME280;55864;49.238;8.092;2023-03-14T09:38:17;97436.06;;;10.14;85.28
68859;BME280;55864;49.238;8.092;2023-03-14T09:40:21;97441.13;;;10.15;84.96
68859;BME280;55864;49.238;8.092;2023-03-14T09:42:24;97441.94;;;10.16;86.07
68859;BME280;55864;49.238;8.092;2023-03-14T09:44:29;97440.09;;;10.16;85.68
68859;BME280;55864;49.238;8.092;2023-03-14T09:46:31;97446.38;;;10.15;85.32
68859;BME280;55864;49.238;8.092;2023-03-14T09:48:36;97450.78;;;10.15;85.71
68859;BME280;55864;49.238;8.092;2023-03-14T09:50:39;97440.09;;;10.16;85.93
68859;BME280;55864;49.238;8.092;2023-03-14T09:52:40;97454.47;;;10.20;87.04
68859;BME280;55864;49.238;8.092;2023-03-14T09:54:44;97443.97;;;10.20;86.42
68859;BME280;55864;49.238;8.092;2023-03-14T09:56:47;97438.09;;;10.18;87.02
68859;BME280;55864;49.238;8.092;2023-03-14T09:58:50;97441.16;;;10.22;86.71
68859;BME280;55864;49.238;8.092;2023-03-14T10:00:55;97440.16;;;10.23;86.24
68859;BME280;55864;49.238;8.092;2023-03-14T10:03:00;97443.63;;;10.23;85.84
68859;BME280;55864;49.238;8.092;2023-03-14T10:05:15;97440.41;;;10.28;86.48
68859;BME280;55864;49.238;8.092;2023-03-14T10:07:17;97442.66;;;10.31;85.77
68859;BME280;55864;49.238;8.092;2023-03-14T10:09:21;97429.91;;;10.28;85.75
68859;BME280;55864;49.238;8.092;2023-03-14T10:11:22;97440.78;;;10.25;86.40
68859;BME280;55864;49.238;8.092;2023-03-14T10:13:24;97438.59;;;10.28;87.45
68859;BME280;55864;49.238;8.092;2023-03-14T10:15:28;97431.75;;;10.27;86.33
68859;BME280;55864;49.238;8.092;2023-03-14T10:17:39;97433.25;;;10.15;87.25
68859;BME280;55864;49.238;8.092;2023-03-14T10:19:51;97438.09;;;10.18;86.41
68859;BME280;55864;49.238;8.092;2023-03-14T10:21:53;97443.63;;;10.09;86.84
68859;BME280;55864;49.238;8.092;2023-03-14T10:23:54;97447.03;;;10.03;88.30
68859;BME280;55864;49.238;8.092;2023-03-14T10:26:12;97437.25;;;10.11;88.28
68859;BME280;55864;49.238;8.092;2023-03-14T10:28:24;97443.53;;;10.17;88.02
68859;BME280;55864;49.238;8.092;2023-03-14T10:30:33;97443.75;;;10.15;87.09
68859;BME280;55864;49.238;8.092;2023-03-14T10:32:35;97449.00;;;10.15;88.39
68859;BME280;55864;49.238;8.092;2023-03-14T10:34:38;97453.50;;;10.21;87.56
68859;BME280;55864;49.238;8.092;2023-03-14T10:36:39;97440.16;;;10.23;88.11
68859;BME280;55864;49.238;8.092;2023-03-14T10:38:41;97461.56;;;10.20;88.67
68859;BME280;55864;49.238;8.092;2023-03-14T10:40:47;97459.53;;;10.22;87.51
68859;BME280;55864;49.238;8.092;2023-03-14T10:42:48;97462.16;;;10.22;87.88
68859;BME280;55864;49.238;8.092;2023-03-14T10:44:55;97462.34;;;10.20;87.21
68859;BME280;55864;49.238;8.092;2023-03-14T10:46:59;97467.34;;;10.15;87.24
68859;BME280;55864;49.238;8.092;2023-03-14T10:49:04;97468.72;;;10.11;86.70
68859;BME280;55864;49.238;8.092;2023-03-14T10:51:07;97472.16;;;10.12;87.03
68859;BME280;55864;49.238;8.092;2023-03-14T10:53:08;97473.41;;;10.16;88.04
68859;BME280;55864;49.238;8.092;2023-03-14T10:55:12;97482.28;;;10.15;87.02
68859;BME280;55864;49.238;8.092;2023-03-14T10:57:12;97492.56;;;10.16;86.75
68859;BME280;55864;49.238;8.092;2023-03-14T10:59:14;97479.47;;;10.16;86.75